Time;durP1;ratioP1;P1;durP2;ratioP2;P2;SDS_P1;SDS_P2;PMS_P1;PMS_P2;Temp;Humidity;BMP_temperature;BMP_pressure;BME280_temperature;BME280_humidity;BME280_pressure;Samples;Min_cycle;Max_cycle;Signal;HPM_P1;HPM_P2
2023/09/29 00:01:47;;;;;;;13.85;3.70;;;;;;;;;;4952660;28;20034;-38
2023/09/29 00:04:15;;;;;;;15.85;3.97;;;;;;;;;;4941443;28;20527;-38
2023/09/29 00:06:43;;;;;;;16.67;4.50;;;;;;;;;;4967569;28;20057;-38
2023/09/29 00:09:12;;;;;;;14.07;3.92;;;;;;;;;;4957200;28;20042;-38
2023/09/29 00:11:41;;;;;;;14.37;3.70;;;;;;;;;;4965083;28;20035;-38
2023/09/29 00:14:09;;;;;;;14.38;3.70;;;;;;;;;;4967265;28;20091;-38
2023/09/29 00:16:37;;;;;;;9.82;2.83;;;;;;;;;;4951036;28;20042;-38
2023/09/29 00:19:06;;;;;;;11.13;2.97;;;;;;;;;;4966672;28;20133;-38
2023/09/29 00:21:34;;;;;;;13.48;3.20;;;;;;;;;;4957631;28;20109;-39
2023/09/29 00:24:02;;;;;;;11.10;2.90;;;;;;;;;;4965517;28;20053;-38
2023/09/29 00:26:30;;;;;;;10.75;3.25;;;;;;;;;;4953698;28;20038;-38
2023/09/29 00:29:02;;;;;;;8.07;2.40;;;;;;;;;;4963285;28;20057;-39
2023/09/29 00:31:30;;;;;;;8.27;2.38;;;;;;;;;;4970754;28;20046;-38
2023/09/29 00:33:58;;;;;;;8.00;2.25;;;;;;;;;;4941249;28;20062;-38
2023/09/29 00:36:27;;;;;;;7.93;2.23;;;;;;;;;;4961417;28;20865;-38
2023/09/29 00:38:55;;;;;;;11.23;2.83;;;;;;;;;;4954879;28;20038;-38
2023/09/29 00:41:23;;;;;;;7.20;2.50;;;;;;;;;;4965868;28;20050;-38
2023/09/29 00:43:51;;;;;;;7.15;2.58;;;;;;;;;;4955094;28;20699;-38
2023/09/29 00:46:19;;;;;;;9.93;2.67;;;;;;;;;;4967608;28;20045;-38
2023/09/29 00:48:49;;;;;;;8.30;2.43;;;;;;;;;;4954499;28;20070;-39
2023/09/29 00:51:21;;;;;;;10.35;3.22;;;;;;;;;;4965777;28;20042;-38
2023/09/29 00:53:51;;;;;;;11.38;3.35;;;;;;;;;;4955208;28;20146;-38
2023/09/29 00:56:20;;;;;;;10.35;3.13;;;;;;;;;;4956317;28;20555;-38
2023/09/29 00:58:48;;;;;;;10.05;2.92;;;;;;;;;;4955708;28;20057;-38
2023/09/29 01:01:16;;;;;;;14.27;4.23;;;;;;;;;;4959294;28;20487;-38
2023/09/29 01:03:44;;;;;;;12.15;4.20;;;;;;;;;;4958502;28;20484;-37
2023/09/29 01:06:12;;;;;;;12.75;4.13;;;;;;;;;;4947950;28;20512;-38
2023/09/29 01:08:40;;;;;;;10.57;4.30;;;;;;;;;;4960113;28;20408;-38
2023/09/29 01:11:09;;;;;;;10.23;3.58;;;;;;;;;;4956087;28;20049;-38
2023/09/29 01:13:40;;;;;;;10.27;3.90;;;;;;;;;;4962853;28;20039;-38
2023/09/29 01:16:09;;;;;;;8.82;2.58;;;;;;;;;;4950870;28;20512;-38
2023/09/29 01:18:37;;;;;;;8.25;2.75;;;;;;;;;;4958724;28;20125;-38
2023/09/29 01:21:06;;;;;;;8.65;2.42;;;;;;;;;;4954107;28;20568;-39
2023/09/29 01:23:37;;;;;;;7.55;2.40;;;;;;;;;;4970127;28;20042;-40
2023/09/29 01:26:05;;;;;;;8.50;2.30;;;;;;;;;;4939408;28;20053;-38
2023/09/29 01:28:32;;;;;;;9.13;2.75;;;;;;;;;;4970550;28;20046;-38
2023/09/29 01:31:00;;;;;;;7.30;2.50;;;;;;;;;;4953735;28;20489;-38
2023/09/29 01:33:28;;;;;;;9.13;2.70;;;;;;;;;;4966746;28;20130;-38
2023/09/29 01:35:55;;;;;;;7.22;2.17;;;;;;;;;;4948154;28;20038;-38
2023/09/29 01:38:23;;;;;;;8.60;2.60;;;;;;;;;;4969109;28;20038;-38
2023/09/29 01:40:52;;;;;;;6.82;2.60;;;;;;;;;;4952743;28;20149;-37
2023/09/29 01:43:22;;;;;;;9.35;2.72;;;;;;;;;;4967227;28;20046;-38
2023/09/29 01:45:50;;;;;;;8.85;2.20;;;;;;;;;;4950215;28;20116;-38
2023/09/29 01:48:18;;;;;;;8.10;1.95;;;;;;;;;;4960505;28;20046;-38
2023/09/29 01:50:46;;;;;;;8.13;2.07;;;;;;;;;;4960468;28;20330;-38
2023/09/29 01:53:15;;;;;;;8.43;2.53;;;;;;;;;;4960113;28;20524;-40
2023/09/29 01:55:43;;;;;;;10.43;3.22;;;;;;;;;;4963004;28;20046;-38
2023/09/29 01:58:12;;;;;;;7.85;3.25;;;;;;;;;;4956583;28;20097;-38
2023/09/29 02:00:40;;;;;;;8.90;3.33;;;;;;;;;;4951759;28;20042;-38
2023/09/29 02:03:08;;;;;;;10.63;3.40;;;;;;;;;;4962331;28;20489;-37
2023/09/29 02:05:36;;;;;;;11.18;3.20;;;;;;;;;;4968077;28;20035;-38
2023/09/29 02:08:06;;;;;;;10.90;3.33;;;;;;;;;;4951103;28;20043;-37
2023/09/29 02:10:35;;;;;;;8.68;2.90;;;;;;;;;;4965042;28;20093;-39
2023/09/29 02:13:04;;;;;;;9.10;3.33;;;;;;;;;;4947258;28;20045;-38
2023/09/29 02:15:35;;;;;;;9.40;3.30;;;;;;;;;;4941420;28;20165;-38
2023/09/29 02:18:04;;;;;;;8.57;3.35;;;;;;;;;;4965244;28;20438;-38
2023/09/29 02:20:32;;;;;;;8.93;3.20;;;;;;;;;;4971799;28;20055;-38
2023/09/29 02:23:02;;;;;;;8.60;2.80;;;;;;;;;;4957188;28;20039;-38
2023/09/29 02:25:29;;;;;;;7.93;2.53;;;;;;;;;;4942431;28;20038;-38
2023/09/29 02:27:59;;;;;;;9.17;2.30;;;;;;;;;;4954547;28;20145;-37
2023/09/29 02:30:34;;;;;;;8.00;2.85;;;;;;;;;;4959381;28;20717;-38
2023/09/29 02:33:02;;;;;;;9.50;2.83;;;;;;;;;;4964322;28;20046;-37
2023/09/29 02:35:30;;;;;;;9.57;2.78;;;;;;;;;;4955460;28;20077;-38
2023/09/29 02:37:58;;;;;;;10.50;3.28;;;;;;;;;;4963263;28;20042;-38
2023/09/29 02:40:28;;;;;;;9.33;3.27;;;;;;;;;;4958406;28;20053;-38
2023/09/29 02:42:56;;;;;;;11.70;4.45;;;;;;;;;;4967120;28;20042;-37
2023/09/29 02:45:25;;;;;;;9.57;3.83;;;;;;;;;;4960294;28;20341;-38
2023/09/29 02:47:55;;;;;;;15.93;4.55;;;;;;;;;;4958148;28;20049;-38
2023/09/29 02:50:24;;;;;;;14.18;5.10;;;;;;;;;;4960537;28;20056;-38
2023/09/29 02:52:53;;;;;;;14.17;4.70;;;;;;;;;;4952670;28;20051;-38
2023/09/29 02:55:22;;;;;;;15.93;5.45;;;;;;;;;;4965289;28;20046;-38
2023/09/29 02:57:51;;;;;;;17.73;5.93;;;;;;;;;;4944322;28;20045;-37
2023/09/29 03:00:19;;;;;;;14.27;5.90;;;;;;;;;;4973456;28;20425;-38
2023/09/29 03:02:48;;;;;;;15.52;5.95;;;;;;;;;;4953456;28;20417;-38
2023/09/29 03:05:17;;;;;;;12.20;4.83;;;;;;;;;;4960963;28;20510;-39
2023/09/29 03:07:45;;;;;;;15.80;5.10;;;;;;;;;;4951270;28;20126;-38
2023/09/29 03:10:14;;;;;;;15.18;4.90;;;;;;;;;;4965386;28;20039;-38
2023/09/29 03:12:43;;;;;;;16.33;5.05;;;;;;;;;;4947912;28;20038;-38
2023/09/29 03:15:12;;;;;;;12.52;3.95;;;;;;;;;;4959071;28;20054;-38
2023/09/29 03:17:41;;;;;;;9.80;4.13;;;;;;;;;;4969509;28;20190;-38
2023/09/29 03:20:12;;;;;;;11.48;3.28;;;;;;;;;;4948112;28;20066;-37
2023/09/29 03:22:43;;;;;;;7.75;2.50;;;;;;;;;;4964400;28;20070;-37
2023/09/29 03:25:16;;;;;;;9.07;2.28;;;;;;;;;;4958944;28;20101;-37
2023/09/29 03:27:44;;;;;;;7.03;2.20;;;;;;;;;;4964895;28;20100;-37
2023/09/29 03:30:13;;;;;;;6.90;2.17;;;;;;;;;;4966104;28;20126;-38
2023/09/29 03:32:40;;;;;;;6.07;1.80;;;;;;;;;;4962084;28;20038;-38
2023/09/29 03:35:13;;;;;;;6.63;2.28;;;;;;;;;;4958019;28;20333;-40
2023/09/29 03:37:45;;;;;;;7.57;2.45;;;;;;;;;;4973212;28;20038;-38
2023/09/29 03:40:19;;;;;;;13.35;2.42;;;;;;;;;;4984970;28;20043;-38
2023/09/29 03:42:47;;;;;;;8.30;2.13;;;;;;;;;;4951704;28;20036;-38
2023/09/29 03:45:15;;;;;;;7.60;2.67;;;;;;;;;;4972140;28;20157;-38
2023/09/29 03:47:43;;;;;;;10.25;2.78;;;;;;;;;;4936506;28;20111;-38
2023/09/29 03:50:11;;;;;;;11.02;3.55;;;;;;;;;;4973658;28;20133;-38
2023/09/29 03:52:42;;;;;;;9.10;2.60;;;;;;;;;;4961388;28;20634;-38
2023/09/29 03:55:14;;;;;;;7.67;2.60;;;;;;;;;;4940385;28;20049;-37
2023/09/29 03:57:44;;;;;;;7.15;2.17;;;;;;;;;;4962034;28;20061;-38
2023/09/29 04:00:15;;;;;;;5.47;1.50;;;;;;;;;;4976173;28;20042;-37
2023/09/29 04:02:44;;;;;;;6.78;1.55;;;;;;;;;;4957465;28;20106;-38
2023/09/29 04:05:12;;;;;;;5.75;1.40;;;;;;;;;;4965331;28;20129;-38
2023/09/29 04:07:40;;;;;;;5.50;1.03;;;;;;;;;;4955663;28;21156;-38
2023/09/29 04:10:10;;;;;;;5.05;1.48;;;;;;;;;;4965373;28;20373;-38
2023/09/29 04:12:40;;;;;;;4.63;0.98;;;;;;;;;;4971595;28;20055;-38
2023/09/29 04:15:09;;;;;;;5.38;1.20;;;;;;;;;;4950861;28;20125;-38
2023/09/29 04:17:38;;;;;;;6.03;1.40;;;;;;;;;;4967080;28;20508;-38
2023/09/29 04:20:06;;;;;;;7.13;1.47;;;;;;;;;;4961417;28;20069;-37
2023/09/29 04:22:34;;;;;;;6.25;1.40;;;;;;;;;;4966860;28;20061;-42
2023/09/29 04:25:02;;;;;;;4.68;1.23;;;;;;;;;;4966479;28;20042;-38
2023/09/29 04:27:30;;;;;;;5.80;1.17;;;;;;;;;;4956401;28;20046;-38
2023/09/29 04:29:59;;;;;;;4.10;1.27;;;;;;;;;;4971348;28;20050;-38
2023/09/29 04:32:27;;;;;;;4.63;1.23;;;;;;;;;;4964033;28;20042;-37
2023/09/29 04:34:55;;;;;;;6.03;1.17;;;;;;;;;;4970178;28;20129;-38
2023/09/29 04:37:23;;;;;;;5.00;1.13;;;;;;;;;;4958724;28;20068;-38
2023/09/29 04:39:50;;;;;;;5.90;1.17;;;;;;;;;;4972988;28;20476;-38
2023/09/29 04:42:18;;;;;;;7.72;1.52;;;;;;;;;;4950956;28;20053;-39
2023/09/29 04:44:46;;;;;;;5.33;1.30;;;;;;;;;;4971055;28;20049;-38
2023/09/29 04:47:15;;;;;;;6.30;1.58;;;;;;;;;;4949352;28;20540;-38
2023/09/29 04:49:43;;;;;;;5.07;1.33;;;;;;;;;;4957822;28;20038;-38
2023/09/29 04:52:12;;;;;;;4.63;1.30;;;;;;;;;;4951261;28;20046;-38
2023/09/29 04:54:40;;;;;;;4.72;1.50;;;;;;;;;;4951069;28;20042;-38
2023/09/29 04:57:07;;;;;;;7.63;1.73;;;;;;;;;;4958829;28;20532;-38
2023/09/29 04:59:35;;;;;;;7.30;1.92;;;;;;;;;;4963534;28;21003;-38
2023/09/29 05:02:05;;;;;;;6.18;2.10;;;;;;;;;;4949372;28;21249;-38
2023/09/29 05:04:34;;;;;;;7.85;3.10;;;;;;;;;;4972382;28;20047;-38
2023/09/29 05:07:02;;;;;;;6.97;2.50;;;;;;;;;;4951874;28;20038;-38
2023/09/29 05:09:30;;;;;;;8.30;2.70;;;;;;;;;;4968750;28;20049;-38
2023/09/29 05:11:58;;;;;;;8.10;3.10;;;;;;;;;;4951020;28;20038;-38
2023/09/29 05:14:26;;;;;;;11.32;4.00;;;;;;;;;;4963996;28;20070;-38
2023/09/29 05:16:54;;;;;;;10.05;3.63;;;;;;;;;;4941450;28;20097;-38
2023/09/29 05:19:22;;;;;;;8.50;3.60;;;;;;;;;;4960542;28;20034;-38
2023/09/29 05:21:51;;;;;;;9.77;3.40;;;;;;;;;;4969616;28;20081;-37
2023/09/29 05:24:19;;;;;;;9.63;3.85;;;;;;;;;;4958684;28;22168;-38
2023/09/29 05:26:47;;;;;;;12.63;4.88;;;;;;;;;;4960648;28;20374;-39
2023/09/29 05:29:15;;;;;;;12.95;5.18;;;;;;;;;;4955585;28;20039;-39
2023/09/29 05:31:44;;;;;;;12.90;5.10;;;;;;;;;;4968985;28;20049;-38
2023/09/29 05:34:12;;;;;;;14.60;5.53;;;;;;;;;;4952258;28;20063;-38
2023/09/29 05:36:39;;;;;;;15.48;5.97;;;;;;;;;;4950676;28;21009;-39
2023/09/29 05:39:09;;;;;;;12.95;5.72;;;;;;;;;;4951086;28;20050;-38
2023/09/29 05:41:37;;;;;;;11.77;5.80;;;;;;;;;;4964093;28;20140;-38
2023/09/29 05:44:06;;;;;;;12.50;5.80;;;;;;;;;;4959415;28;20504;-38
2023/09/29 05:46:34;;;;;;;12.23;5.27;;;;;;;;;;4952422;28;20108;-39
2023/09/29 05:49:01;;;;;;;12.27;4.80;;;;;;;;;;4964318;28;20644;-37
2023/09/29 05:51:29;;;;;;;12.30;4.28;;;;;;;;;;4959134;28;20034;-38
2023/09/29 05:53:58;;;;;;;10.85;4.13;;;;;;;;;;4959777;28;20042;-38
2023/09/29 05:56:29;;;;;;;10.85;3.63;;;;;;;;;;4963423;28;20408;-38
2023/09/29 05:58:58;;;;;;;8.43;3.30;;;;;;;;;;4960747;28;20081;-38
2023/09/29 06:01:26;;;;;;;7.15;3.08;;;;;;;;;;4951136;28;20038;-39
2023/09/29 06:03:55;;;;;;;8.52;2.85;;;;;;;;;;4958611;28;20052;-38
2023/09/29 06:06:24;;;;;;;9.38;2.75;;;;;;;;;;4953713;28;20038;-37
2023/09/29 06:08:51;;;;;;;8.52;2.80;;;;;;;;;;4953265;28;20034;-38
2023/09/29 06:11:22;;;;;;;9.20;2.50;;;;;;;;;;4953924;28;20412;-37
2023/09/29 06:13:52;;;;;;;8.52;1.80;;;;;;;;;;4939758;28;20563;-38
2023/09/29 06:16:21;;;;;;;5.03;1.42;;;;;;;;;;4965401;28;20046;-38
2023/09/29 06:18:49;;;;;;;9.00;1.73;;;;;;;;;;4955327;28;20038;-38
2023/09/29 06:21:17;;;;;;;6.35;1.63;;;;;;;;;;4956094;28;20137;-38
2023/09/29 06:23:44;;;;;;;6.83;1.67;;;;;;;;;;4957775;28;20061;-38
2023/09/29 06:26:12;;;;;;;9.85;1.38;;;;;;;;;;4896983;28;20053;-37
2023/09/29 06:28:40;;;;;;;7.30;1.63;;;;;;;;;;4962464;28;20046;-38
2023/09/29 06:31:09;;;;;;;10.85;2.13;;;;;;;;;;4950356;28;20900;-38
2023/09/29 06:33:37;;;;;;;7.82;1.42;;;;;;;;;;4950489;28;20064;-37
2023/09/29 06:36:05;;;;;;;12.27;1.57;;;;;;;;;;4959342;28;20049;-38
2023/09/29 06:38:33;;;;;;;8.32;1.20;;;;;;;;;;4948366;28;20056;-37
2023/09/29 06:41:01;;;;;;;7.15;1.48;;;;;;;;;;4959964;28;20117;-37
2023/09/29 06:43:28;;;;;;;7.47;1.50;;;;;;;;;;4957134;28;20039;-38
2023/09/29 06:45:56;;;;;;;7.75;1.73;;;;;;;;;;4958151;28;20047;-38
2023/09/29 06:48:30;;;;;;;7.70;1.60;;;;;;;;;;4949691;28;20512;-38
2023/09/29 06:50:59;;;;;;;5.47;1.25;;;;;;;;;;4960886;28;20050;-38
2023/09/29 06:53:29;;;;;;;10.43;1.75;;;;;;;;;;4964639;28;20054;-38
2023/09/29 06:55:58;;;;;;;9.15;2.05;;;;;;;;;;4958809;28;20042;-38
2023/09/29 06:58:26;;;;;;;10.05;1.75;;;;;;;;;;4965748;28;20046;-38
2023/09/29 07:00:56;;;;;;;9.43;1.77;;;;;;;;;;4959080;28;20046;-38
2023/09/29 07:03:31;;;;;;;6.20;1.70;;;;;;;;;;4955193;28;20296;-38
2023/09/29 07:05:59;;;;;;;6.75;1.70;;;;;;;;;;4958574;28;20049;-38
2023/09/29 07:08:27;;;;;;;8.88;2.03;;;;;;;;;;4952208;28;20077;-37
2023/09/29 07:10:55;;;;;;;13.43;1.73;;;;;;;;;;4945889;28;20038;-38
2023/09/29 07:13:23;;;;;;;8.23;1.87;;;;;;;;;;4965134;28;20126;-38
2023/09/29 07:15:50;;;;;;;10.95;1.90;;;;;;;;;;4954739;28;20516;-38
2023/09/29 07:18:18;;;;;;;8.02;2.08;;;;;;;;;;4951421;28;20483;-37
2023/09/29 07:20:50;;;;;;;8.85;1.83;;;;;;;;;;4958194;28;20047;-38
2023/09/29 07:23:20;;;;;;;7.65;1.25;;;;;;;;;;4961556;28;20100;-38
2023/09/29 07:25:48;;;;;;;8.63;1.80;;;;;;;;;;4956061;28;20543;-38
2023/09/29 07:28:16;;;;;;;11.02;1.90;;;;;;;;;;4950794;28;20509;-38
2023/09/29 07:30:44;;;;;;;8.90;2.20;;;;;;;;;;4942699;28;20039;-38
2023/09/29 07:33:12;;;;;;;8.98;2.13;;;;;;;;;;4961699;28;21037;-38
2023/09/29 07:35:40;;;;;;;7.13;1.30;;;;;;;;;;4952242;28;20054;-38
2023/09/29 07:38:09;;;;;;;9.47;1.90;;;;;;;;;;4962984;28;20057;-37
2023/09/29 07:40:37;;;;;;;17.13;3.10;;;;;;;;;;4950991;28;20047;-38
2023/09/29 07:43:05;;;;;;;10.77;2.30;;;;;;;;;;4959327;28;20554;-38
2023/09/29 07:45:32;;;;;;;10.55;1.80;;;;;;;;;;4947090;28;20045;-37
2023/09/29 07:48:00;;;;;;;11.88;2.85;;;;;;;;;;4960406;28;20049;-37
2023/09/29 07:50:28;;;;;;;12.50;2.63;;;;;;;;;;4946413;28;20487;-37
2023/09/29 07:52:56;;;;;;;11.48;2.67;;;;;;;;;;4955862;28;20038;-37
2023/09/29 07:55:26;;;;;;;13.93;2.63;;;;;;;;;;4598676;28;10000389;-38
2023/09/29 07:57:54;;;;;;;11.52;2.90;;;;;;;;;;4954469;28;20047;-38
2023/09/29 08:00:21;;;;;;;12.05;2.58;;;;;;;;;;4955815;28;20546;-37
2023/09/29 08:02:49;;;;;;;14.23;2.50;;;;;;;;;;4950152;28;20043;-37
2023/09/29 08:05:17;;;;;;;13.23;2.65;;;;;;;;;;4946351;28;21631;-38
2023/09/29 08:07:45;;;;;;;20.37;4.07;;;;;;;;;;4940995;28;20121;-38
2023/09/29 08:10:13;;;;;;;13.85;3.20;;;;;;;;;;4950488;28;20054;-38
2023/09/29 08:12:42;;;;;;;13.73;2.78;;;;;;;;;;4965624;28;20050;-37
2023/09/29 08:15:13;;;;;;;19.05;2.60;;;;;;;;;;4584362;28;10001422;-37
2023/09/29 08:17:41;;;;;;;11.48;3.58;;;;;;;;;;4918336;28;20488;-37
2023/09/29 08:20:10;;;;;;;12.10;2.53;;;;;;;;;;4927007;28;20132;-37
2023/09/29 08:22:38;;;;;;;15.80;3.33;;;;;;;;;;4921115;28;20983;-38
2023/09/29 08:25:09;;;;;;;14.48;2.47;;;;;;;;;;4921062;28;20121;-38
2023/09/29 08:27:37;;;;;;;13.45;2.65;;;;;;;;;;4910146;28;20380;-38
2023/09/29 08:30:07;;;;;;;10.65;2.10;;;;;;;;;;4924820;28;20527;-38
2023/09/29 08:32:36;;;;;;;11.97;2.93;;;;;;;;;;4923442;28;20675;-38
2023/09/29 08:35:04;;;;;;;14.23;2.88;;;;;;;;;;4926402;28;20375;-38
2023/09/29 08:37:32;;;;;;;12.40;2.60;;;;;;;;;;4889839;28;20101;-37
2023/09/29 08:40:02;;;;;;;17.38;2.78;;;;;;;;;;4928736;28;20049;-38
2023/09/29 08:42:35;;;;;;;13.10;2.40;;;;;;;;;;4944230;28;20153;-38
2023/09/29 08:45:08;;;;;;;16.03;3.47;;;;;;;;;;4915806;28;20850;-37
2023/09/29 08:47:38;;;;;;;13.93;2.38;;;;;;;;;;4928193;28;20044;-37
2023/09/29 08:50:07;;;;;;;13.25;2.83;;;;;;;;;;4913295;28;20353;-37
2023/09/29 08:52:36;;;;;;;15.40;3.10;;;;;;;;;;4931585;28;20132;-38
2023/09/29 08:55:03;;;;;;;14.43;2.88;;;;;;;;;;4914884;28;20458;-38
2023/09/29 08:57:31;;;;;;;16.67;3.30;;;;;;;;;;4928708;28;20412;-37
2023/09/29 09:00:01;;;;;;;14.15;3.13;;;;;;;;;;4885324;28;20047;-38
2023/09/29 09:02:29;;;;;;;13.63;2.45;;;;;;;;;;4930940;28;20046;-38
2023/09/29 09:05:02;;;;;;;13.90;2.60;;;;;;;;;;4921211;28;20934;-37
2023/09/29 09:07:31;;;;;;;16.23;2.35;;;;;;;;;;4941449;28;20054;-38
2023/09/29 09:09:59;;;;;;;11.13;2.47;;;;;;;;;;4943593;28;20038;-38
2023/09/29 09:12:33;;;;;;;17.73;2.10;;;;;;;;;;4914438;28;20057;-37
2023/09/29 09:15:03;;;;;;;12.15;1.98;;;;;;;;;;4947041;28;20042;-37
2023/09/29 09:17:33;;;;;;;13.55;2.17;;;;;;;;;;4925337;28;20077;-37
2023/09/29 09:20:02;;;;;;;13.48;2.10;;;;;;;;;;4942001;28;20054;-38
2023/09/29 09:22:33;;;;;;;10.70;1.87;;;;;;;;;;4929894;28;20041;-38
2023/09/29 09:25:14;;;;;;;13.52;2.65;;;;;;;;;;4932524;28;20104;-38
2023/09/29 09:27:43;;;;;;;15.48;3.13;;;;;;;;;;4933624;28;20065;-38
2023/09/29 09:30:20;;;;;;;11.25;1.95;;;;;;;;;;4944648;28;20050;-38
2023/09/29 09:32:48;;;;;;;11.98;2.17;;;;;;;;;;4937662;28;20489;-38
2023/09/29 09:35:25;;;;;;;10.03;1.53;;;;;;;;;;4927969;28;20524;-38
2023/09/29 09:37:53;;;;;;;10.55;2.00;;;;;;;;;;4943529;28;20108;-38
2023/09/29 09:40:21;;;;;;;9.55;1.90;;;;;;;;;;4938380;28;20042;-38
2023/09/29 09:42:49;;;;;;;9.90;1.90;;;;;;;;;;4918876;28;20448;-38
2023/09/29 09:45:17;;;;;;;13.73;2.50;;;;;;;;;;4925851;28;20501;-39
2023/09/29 09:47:47;;;;;;;11.20;2.00;;;;;;;;;;4935268;28;20046;-38
2023/09/29 09:50:15;;;;;;;11.52;2.00;;;;;;;;;;4929212;28;20561;-38
2023/09/29 09:52:50;;;;;;;9.38;1.67;;;;;;;;;;4942371;28;20057;-38
2023/09/29 09:55:19;;;;;;;13.05;2.22;;;;;;;;;;4936001;28;20050;-38
2023/09/29 09:57:50;;;;;;;18.83;2.50;;;;;;;;;;4939146;28;20050;-38
2023/09/29 10:00:18;;;;;;;10.00;1.67;;;;;;;;;;4931102;28;20050;-38
2023/09/29 10:02:47;;;;;;;14.65;2.22;;;;;;;;;;4929184;28;20046;-38
2023/09/29 10:05:22;;;;;;;17.80;2.80;;;;;;;;;;4939045;28;20074;-38
2023/09/29 10:07:56;;;;;;;10.38;2.38;;;;;;;;;;4956544;28;20042;-37
2023/09/29 10:10:24;;;;;;;12.80;2.85;;;;;;;;;;4945664;28;20046;-38
2023/09/29 10:12:55;;;;;;;11.77;2.53;;;;;;;;;;4964144;28;20054;-38
2023/09/29 10:15:29;;;;;;;11.35;2.17;;;;;;;;;;4960718;28;20050;-38
2023/09/29 10:17:58;;;;;;;12.73;2.10;;;;;;;;;;4607930;28;9999846;-39
2023/09/29 10:20:29;;;;;;;13.45;1.95;;;;;;;;;;4962723;28;20113;-38
2023/09/29 10:23:06;;;;;;;14.13;1.60;;;;;;;;;;4946967;28;20039;-38
2023/09/29 10:25:36;;;;;;;13.50;1.80;;;;;;;;;;4949359;28;20039;-39
2023/09/29 10:28:06;;;;;;;11.88;1.75;;;;;;;;;;4957074;28;20411;-38
2023/09/29 10:30:34;;;;;;;14.50;2.30;;;;;;;;;;4950802;28;20125;-38
2023/09/29 10:33:05;;;;;;;9.73;2.47;;;;;;;;;;4956680;28;20053;-38
2023/09/29 10:35:33;;;;;;;10.07;1.23;;;;;;;;;;4948375;28;20086;-38
2023/09/29 10:38:10;;;;;;;7.38;1.17;;;;;;;;;;4948842;28;20043;-40
2023/09/29 10:40:39;;;;;;;10.70;1.58;;;;;;;;;;4948632;28;20046;-38
2023/09/29 10:43:07;;;;;;;9.40;1.20;;;;;;;;;;4952488;28;20039;-38
2023/09/29 10:45:37;;;;;;;10.57;1.35;;;;;;;;;;4949288;28;20038;-40
2023/09/29 10:48:06;;;;;;;10.18;1.80;;;;;;;;;;4960892;28;20050;-38
2023/09/29 10:50:41;;;;;;;6.50;1.20;;;;;;;;;;4952518;28;20046;-38
2023/09/29 10:53:09;;;;;;;8.32;1.40;;;;;;;;;;4933067;28;20155;-38
2023/09/29 10:55:44;;;;;;;8.40;1.30;;;;;;;;;;4939734;28;20046;-38
2023/09/29 10:58:12;;;;;;;8.93;1.77;;;;;;;;;;4936803;28;20046;-38
2023/09/29 11:00:42;;;;;;;8.68;1.70;;;;;;;;;;4931302;28;20672;-38
2023/09/29 11:03:13;;;;;;;8.50;1.27;;;;;;;;;;4926502;28;20930;-37
2023/09/29 11:05:50;;;;;;;17.52;2.47;;;;;;;;;;4942220;28;20138;-38
2023/09/29 11:08:19;;;;;;;8.10;1.70;;;;;;;;;;4930240;28;20042;-38
2023/09/29 11:10:56;;;;;;;11.70;2.33;;;;;;;;;;4934120;28;20121;-38
2023/09/29 11:13:24;;;;;;;8.82;1.52;;;;;;;;;;4940867;28;20312;-37
2023/09/29 11:15:52;;;;;;;12.57;1.70;;;;;;;;;;4930740;28;20053;-38
2023/09/29 11:18:27;;;;;;;8.85;1.25;;;;;;;;;;4940318;28;20538;-37
2023/09/29 11:20:56;;;;;;;8.57;1.20;;;;;;;;;;4930876;28;20405;-37
2023/09/29 11:23:24;;;;;;;10.10;1.98;;;;;;;;;;4939938;28;20070;-38
2023/09/29 11:25:54;;;;;;;12.10;1.52;;;;;;;;;;4943522;28;20431;-37
2023/09/29 11:28:23;;;;;;;9.77;1.42;;;;;;;;;;4952292;28;20625;-37
2023/09/29 11:30:51;;;;;;;13.38;1.80;;;;;;;;;;4946327;28;20077;-37
2023/09/29 11:33:19;;;;;;;10.23;1.50;;;;;;;;;;4965915;28;20045;-37
2023/09/29 11:35:48;;;;;;;13.80;1.75;;;;;;;;;;4941872;28;20045;-37
2023/09/29 11:38:33;;;;;;;13.43;1.90;;;;;;;;;;4946680;28;20062;-37
2023/09/29 11:41:01;;;;;;;8.30;1.63;;;;;;;;;;4962877;28;20038;-37
2023/09/29 11:43:30;;;;;;;10.30;1.60;;;;;;;;;;4950572;28;20125;-38
2023/09/29 11:45:58;;;;;;;8.67;1.60;;;;;;;;;;4963897;28;20042;-37
2023/09/29 11:48:25;;;;;;;8.18;1.60;;;;;;;;;;4949524;28;20653;-38
2023/09/29 11:50:53;;;;;;;10.38;1.70;;;;;;;;;;4954077;28;20042;-38
2023/09/29 11:53:21;;;;;;;11.95;1.98;;;;;;;;;;4932728;28;20066;-37
2023/09/29 11:55:49;;;;;;;9.43;1.60;;;;;;;;;;4954892;28;20039;-37
2023/09/29 11:58:17;;;;;;;6.63;1.13;;;;;;;;;;4959798;28;20049;-37
2023/09/29 12:00:48;;;;;;;11.35;1.90;;;;;;;;;;4943510;28;20093;-38
2023/09/29 12:03:21;;;;;;;11.75;2.00;;;;;;;;;;4957221;28;20124;-38
2023/09/29 12:05:52;;;;;;;8.82;1.70;;;;;;;;;;4963692;28;20038;-38
2023/09/29 12:08:21;;;;;;;9.60;1.85;;;;;;;;;;4964285;28;20065;-37
2023/09/29 12:10:48;;;;;;;10.53;1.33;;;;;;;;;;4957115;28;20042;-38
2023/09/29 12:13:16;;;;;;;8.82;1.23;;;;;;;;;;4961413;28;20038;-38
2023/09/29 12:15:44;;;;;;;12.57;1.60;;;;;;;;;;4950372;28;20043;-37
2023/09/29 12:18:13;;;;;;;8.40;1.80;;;;;;;;;;4962834;28;20523;-37
2023/09/29 12:20:41;;;;;;;8.65;1.30;;;;;;;;;;4959760;28;20303;-37
2023/09/29 12:23:10;;;;;;;10.50;1.57;;;;;;;;;;4969509;28;20051;-37
2023/09/29 12:25:38;;;;;;;9.27;1.48;;;;;;;;;;4953488;28;20034;-38
2023/09/29 12:28:06;;;;;;;10.55;1.15;;;;;;;;;;4958430;28;20129;-37
2023/09/29 12:30:34;;;;;;;11.95;1.60;;;;;;;;;;4957323;28;20069;-37
2023/09/29 12:33:02;;;;;;;11.85;1.52;;;;;;;;;;4958232;28;20038;-37
2023/09/29 12:35:32;;;;;;;6.67;1.20;;;;;;;;;;4959036;28;20050;-38
2023/09/29 12:37:59;;;;;;;12.77;2.63;;;;;;;;;;4967837;28;20039;-37
2023/09/29 12:40:28;;;;;;;8.73;1.50;;;;;;;;;;4950250;28;20070;-37
2023/09/29 12:42:58;;;;;;;11.68;1.88;;;;;;;;;;4964087;28;20515;-37
2023/09/29 12:45:25;;;;;;;9.48;1.52;;;;;;;;;;4957476;28;20038;-38
2023/09/29 12:47:54;;;;;;;10.17;1.87;;;;;;;;;;4960544;28;20125;-37
2023/09/29 12:50:22;;;;;;;10.73;2.03;;;;;;;;;;4958793;28;20039;-38
2023/09/29 12:52:52;;;;;;;12.23;1.65;;;;;;;;;;4964303;28;20034;-38
2023/09/29 12:55:20;;;;;;;9.10;1.63;;;;;;;;;;4950153;28;20049;-37
2023/09/29 12:57:49;;;;;;;11.10;2.08;;;;;;;;;;4963829;28;20125;-37
2023/09/29 13:00:19;;;;;;;13.17;1.73;;;;;;;;;;4960020;28;20042;-38
2023/09/29 13:02:51;;;;;;;9.23;1.45;;;;;;;;;;4965336;28;20466;-38
2023/09/29 13:05:20;;;;;;;10.20;1.42;;;;;;;;;;4950494;28;20479;-37
2023/09/29 13:07:49;;;;;;;9.57;1.65;;;;;;;;;;4959422;28;20468;-38
2023/09/29 13:10:19;;;;;;;8.00;1.60;;;;;;;;;;4951610;28;20046;-37
2023/09/29 13:12:51;;;;;;;14.27;1.37;;;;;;;;;;4960905;28;20132;-38
2023/09/29 13:15:21;;;;;;;12.60;2.30;;;;;;;;;;4955389;28;20540;-37
2023/09/29 13:17:52;;;;;;;9.98;1.10;;;;;;;;;;4957726;28;20097;-38
2023/09/29 13:20:20;;;;;;;6.47;1.25;;;;;;;;;;4966433;28;20079;-37
2023/09/29 13:22:50;;;;;;;10.93;1.92;;;;;;;;;;4930279;28;20118;-38
2023/09/29 13:25:20;;;;;;;9.77;1.20;;;;;;;;;;4929725;28;20042;-38
2023/09/29 13:27:47;;;;;;;11.35;1.85;;;;;;;;;;4940325;28;20042;-38
2023/09/29 13:30:16;;;;;;;13.88;1.50;;;;;;;;;;4924513;28;20068;-38
2023/09/29 13:32:44;;;;;;;10.43;1.75;;;;;;;;;;4937767;28;20045;-37
2023/09/29 13:35:12;;;;;;;10.13;1.42;;;;;;;;;;4943266;28;20061;-37
2023/09/29 13:37:40;;;;;;;10.07;2.43;;;;;;;;;;4941414;28;20057;-38
2023/09/29 13:40:08;;;;;;;10.55;1.75;;;;;;;;;;4943454;28;20042;-38
2023/09/29 13:42:37;;;;;;;14.30;1.58;;;;;;;;;;4935849;28;20046;-38
2023/09/29 13:45:06;;;;;;;10.35;1.63;;;;;;;;;;4937244;28;20042;-38
2023/09/29 13:47:36;;;;;;;11.15;1.60;;;;;;;;;;4937254;28;20064;-38
2023/09/29 13:50:05;;;;;;;12.13;2.30;;;;;;;;;;4936968;28;20366;-37
2023/09/29 13:52:33;;;;;;;10.63;1.63;;;;;;;;;;4947328;28;20620;-38
2023/09/29 13:55:01;;;;;;;13.73;2.25;;;;;;;;;;4931677;28;20046;-39
2023/09/29 13:57:29;;;;;;;13.27;1.67;;;;;;;;;;4939918;28;20061;-37
2023/09/29 13:59:58;;;;;;;13.32;2.00;;;;;;;;;;4956798;28;20070;-38
2023/09/29 14:02:26;;;;;;;11.90;1.47;;;;;;;;;;4953734;28;20379;-37
2023/09/29 14:04:55;;;;;;;9.55;1.30;;;;;;;;;;4966051;28;20050;-38
2023/09/29 14:07:23;;;;;;;14.85;2.05;;;;;;;;;;4953982;28;20061;-38
2023/09/29 14:09:51;;;;;;;6.93;1.75;;;;;;;;;;4962119;28;20787;-38
2023/09/29 14:12:19;;;;;;;8.48;1.40;;;;;;;;;;4935409;28;20067;-37
2023/09/29 14:14:47;;;;;;;9.77;1.77;;;;;;;;;;4967579;28;20049;-38
2023/09/29 14:17:16;;;;;;;10.60;1.70;;;;;;;;;;4955428;28;20664;-40
2023/09/29 14:19:45;;;;;;;11.82;1.70;;;;;;;;;;4957549;28;20440;-37
2023/09/29 14:22:13;;;;;;;8.77;1.33;;;;;;;;;;4954354;28;20318;-38
2023/09/29 14:24:40;;;;;;;9.05;1.60;;;;;;;;;;4956249;28;20826;-38
2023/09/29 14:27:09;;;;;;;9.23;1.90;;;;;;;;;;4964694;28;20038;-37
2023/09/29 14:29:39;;;;;;;11.48;1.77;;;;;;;;;;4963687;28;20125;-38
2023/09/29 14:32:09;;;;;;;11.30;1.42;;;;;;;;;;4962527;28;20042;-37
2023/09/29 14:34:39;;;;;;;10.73;1.33;;;;;;;;;;4957314;28;20038;-37
2023/09/29 14:37:06;;;;;;;10.32;1.38;;;;;;;;;;4947664;28;20038;-37
2023/09/29 14:39:35;;;;;;;12.80;1.90;;;;;;;;;;4962017;28;20050;-38
2023/09/29 14:42:02;;;;;;;10.88;1.55;;;;;;;;;;4956659;28;20042;-37
2023/09/29 14:44:30;;;;;;;13.27;2.03;;;;;;;;;;4958764;28;20050;-38
2023/09/29 14:46:58;;;;;;;12.02;2.00;;;;;;;;;;4935646;28;20508;-38